createdAt,value
2017-08-05T00:00:59.545Z,0
2017-08-05T00:02:08.509Z,0
2017-08-05T00:03:17.473Z,0
2017-08-05T00:04:26.431Z,0
2017-08-05T00:05:35.392Z,0
2017-08-05T00:06:44.371Z,0
2017-08-05T00:07:53.324Z,0
2017-08-05T00:09:02.278Z,0
2017-08-05T00:10:11.240Z,0
2017-08-05T00:11:20.211Z,0
2017-08-05T00:12:29.493Z,0
2017-08-05T00:13:38.453Z,0
2017-08-05T00:14:47.735Z,0
2017-08-05T00:15:56.700Z,0
2017-08-05T00:17:05.652Z,0
2017-08-05T00:18:14.618Z,0
2017-08-05T00:19:23.574Z,0
2017-08-05T00:20:32.528Z,0
2017-08-05T00:21:41.494Z,0
2017-08-05T00:22:50.452Z,0
2017-08-05T00:23:59.424Z,0
2017-08-05T00:25:08.730Z,0
2017-08-05T00:26:17.695Z,0
2017-08-05T00:27:26.658Z,0
2017-08-05T00:28:35.638Z,0
2017-08-05T00:29:44.607Z,0
2017-08-05T00:30:53.567Z,0
2017-08-05T00:32:02.540Z,0
2017-08-05T00:33:11.499Z,0
2017-08-05T00:34:20.461Z,0
2017-08-05T00:35:29.412Z,0
2017-08-05T00:36:38.368Z,0
2017-08-05T00:37:47.340Z,0
2017-08-05T00:38:56.309Z,0
2017-08-05T00:40:05.265Z,0
2017-08-05T00:41:14.230Z,0
2017-08-05T00:42:23.186Z,0
2017-08-05T00:43:32.151Z,0
2017-08-05T00:44:41.111Z,0
2017-08-05T00:45:50.075Z,0
2017-08-05T00:46:59.036Z,0
2017-08-05T00:48:07.999Z,0
2017-08-05T00:49:16.968Z,0
2017-08-05T00:50:25.927Z,0
2017-08-05T00:51:34.894Z,0
2017-08-05T00:52:43.851Z,0
2017-08-05T00:53:52.815Z,0
2017-08-05T00:55:02.110Z,0
2017-08-05T00:56:11.396Z,0
2017-08-05T00:57:20.681Z,0
2017-08-05T00:58:29.637Z,0
2017-08-05T00:59:38.633Z,0
2017-08-05T01:00:47.596Z,0
2017-08-05T01:01:56.570Z,0
2017-08-05T01:03:05.529Z,0
2017-08-05T01:04:14.488Z,0
2017-08-05T01:05:23.446Z,0
2017-08-05T01:06:32.403Z,0
2017-08-05T01:07:41.358Z,0
2017-08-05T01:08:50.324Z,0
2017-08-05T01:09:59.290Z,0
2017-08-05T01:11:08.257Z,0
2017-08-05T01:12:17.215Z,0
2017-08-05T01:13:26.177Z,0
2017-08-05T01:14:35.141Z,0
2017-08-05T01:15:44.109Z,0
2017-08-05T01:16:53.070Z,0
2017-08-05T01:18:02.028Z,0
2017-08-05T01:19:10.986Z,0
2017-08-05T01:20:19.954Z,0
2017-08-05T01:21:28.907Z,0
2017-08-05T01:22:37.864Z,0
2017-08-05T01:23:46.839Z,0
2017-08-05T01:24:56.127Z,0
2017-08-05T01:26:05.085Z,0
2017-08-05T01:27:14.059Z,0
2017-08-05T01:28:23.019Z,0
2017-08-05T01:29:32.306Z,0
2017-08-05T01:30:41.274Z,0
2017-08-05T01:31:50.242Z,0
2017-08-05T01:32:59.203Z,0
2017-08-05T01:34:08.181Z,0
2017-08-05T01:35:17.149Z,0
2017-08-05T01:36:26.103Z,0
2017-08-05T01:37:35.074Z,0
2017-08-05T01:38:44.045Z,0
2017-08-05T01:39:53.015Z,0
2017-08-05T01:41:02.296Z,0
2017-08-05T01:42:11.258Z,0
2017-08-05T01:43:20.214Z,0
2017-08-05T01:44:29.180Z,0
2017-08-05T01:45:38.136Z,0
2017-08-05T01:46:47.429Z,0
2017-08-05T01:47:56.394Z,0
2017-08-05T01:49:05.350Z,0
2017-08-05T01:50:14.313Z,0
2017-08-05T01:51:23.277Z,0
2017-08-05T01:52:32.229Z,0
2017-08-05T01:53:41.197Z,0
2017-08-05T01:54:50.160Z,0
2017-08-05T01:55:59.126Z,0
2017-08-05T01:57:08.087Z,0
2017-08-05T01:58:17.046Z,0
2017-08-05T01:59:26.016Z,0
2017-08-05T02:00:34.974Z,0
2017-08-05T02:01:43.931Z,0
2017-08-05T02:02:52.896Z,0
2017-08-05T02:04:02.178Z,0
2017-08-05T02:05:11.143Z,0
2017-08-05T02:06:20.110Z,0
2017-08-05T02:07:29.070Z,0
2017-08-05T02:08:38.028Z,0
2017-08-05T02:09:46.988Z,0
2017-08-05T02:10:55.954Z,0
2017-08-05T02:12:04.917Z,0
2017-08-05T02:13:13.896Z,0
2017-08-05T02:14:23.174Z,0
2017-08-05T02:15:32.130Z,0
2017-08-05T02:16:41.091Z,0
2017-08-05T02:17:50.047Z,0
2017-08-05T02:18:59.009Z,0
2017-08-05T02:20:08.298Z,0
2017-08-05T02:21:17.257Z,0
2017-08-05T02:22:26.536Z,0
2017-08-05T02:23:35.496Z,0
2017-08-05T02:24:44.474Z,0
2017-08-05T02:25:53.437Z,0
2017-08-05T02:27:02.391Z,0
2017-08-05T02:28:11.358Z,0
2017-08-05T02:29:20.311Z,0
2017-08-05T02:30:29.267Z,0
2017-08-05T02:31:38.223Z,0
2017-08-05T02:32:47.193Z,0
2017-08-05T02:33:56.162Z,0
2017-08-05T02:35:05.132Z,0
2017-08-05T02:36:14.092Z,0
2017-08-05T02:37:23.043Z,0
2017-08-05T02:38:32.003Z,0
2017-08-05T02:39:40.974Z,0
2017-08-05T02:40:49.938Z,0
2017-08-05T02:41:58.912Z,0
2017-08-05T02:43:07.871Z,0
2017-08-05T02:44:16.838Z,0
2017-08-05T02:45:26.137Z,0
2017-08-05T02:46:35.429Z,0
2017-08-05T02:47:44.406Z,0
2017-08-05T02:48:53.371Z,0
2017-08-05T02:50:02.330Z,0
2017-08-05T02:51:11.289Z,0
2017-08-05T02:52:20.243Z,0
2017-08-05T02:53:29.204Z,0
2017-08-05T02:54:38.167Z,0
2017-08-05T02:55:47.122Z,0
2017-08-05T02:56:56.092Z,0
2017-08-05T02:58:05.047Z,0
2017-08-05T02:59:14.009Z,0
2017-08-05T03:00:22.963Z,0
2017-08-05T03:01:31.937Z,0
2017-08-05T03:02:40.899Z,0
2017-08-05T03:03:49.863Z,0
2017-08-05T03:04:58.818Z,4
2017-08-05T03:06:07.772Z,4
2017-08-05T03:07:16.734Z,0
2017-08-05T03:08:25.686Z,0
2017-08-05T03:09:34.655Z,4
2017-08-05T03:10:43.619Z,4
2017-08-05T03:11:52.593Z,0
2017-08-05T03:13:01.550Z,4
2017-08-05T03:14:10.515Z,4
2017-08-05T03:15:19.468Z,4
2017-08-05T03:16:28.425Z,4
2017-08-05T03:17:37.694Z,4
2017-08-05T03:18:46.653Z,8
2017-08-05T03:19:55.614Z,4
2017-08-05T03:21:04.569Z,8
2017-08-05T03:22:13.528Z,8
2017-08-05T03:23:22.484Z,12
2017-08-05T03:24:31.445Z,12
2017-08-05T03:25:40.400Z,12
2017-08-05T03:26:49.353Z,12
2017-08-05T03:27:58.312Z,16
2017-08-05T03:29:07.265Z,16
2017-08-05T03:30:16.229Z,20
2017-08-05T03:31:25.199Z,24
2017-08-05T03:32:34.164Z,24
2017-08-05T03:33:43.126Z,24
2017-08-05T03:34:52.092Z,24
2017-08-05T03:36:01.050Z,28
2017-08-05T03:37:10.007Z,32
2017-08-05T03:38:18.968Z,32
2017-08-05T03:39:27.929Z,36
2017-08-05T03:40:36.894Z,36
2017-08-05T03:41:45.857Z,40
2017-08-05T03:42:54.819Z,40
2017-08-05T03:44:03.786Z,44
2017-08-05T03:45:13.085Z,52
2017-08-05T03:46:22.037Z,52
2017-08-05T03:47:30.995Z,52
2017-08-05T03:48:39.968Z,60
2017-08-05T03:49:48.926Z,60
2017-08-05T03:50:57.881Z,64
2017-08-05T03:52:06.850Z,68
2017-08-05T03:53:15.816Z,72
2017-08-05T03:54:24.770Z,76
2017-08-05T03:55:33.733Z,80
2017-08-05T03:56:42.684Z,84
2017-08-05T03:57:51.974Z,84
2017-08-05T03:59:00.938Z,92
2017-08-05T04:00:10.210Z,92
2017-08-05T04:01:19.174Z,96
2017-08-05T04:02:28.131Z,100
2017-08-05T04:03:37.090Z,104
2017-08-05T04:04:46.050Z,108
2017-08-05T04:05:55.007Z,112
2017-08-05T04:07:04.296Z,116
2017-08-05T04:08:13.260Z,116
2017-08-05T04:09:22.215Z,124
2017-08-05T04:10:31.253Z,128
2017-08-05T04:11:40.221Z,132
2017-08-05T04:12:49.183Z,136
2017-08-05T04:13:58.139Z,140
2017-08-05T04:15:07.111Z,144
2017-08-05T04:16:16.074Z,148
2017-08-05T04:17:25.035Z,148
2017-08-05T04:18:33.994Z,148
2017-08-05T04:19:42.941Z,156
2017-08-05T04:20:51.920Z,156
2017-08-05T04:22:00.883Z,160
2017-08-05T04:23:09.845Z,160
2017-08-05T04:24:18.800Z,164
2017-08-05T04:25:27.761Z,168
2017-08-05T04:26:36.725Z,176
2017-08-05T04:27:46.006Z,180
2017-08-05T04:28:54.962Z,184
2017-08-05T04:30:03.916Z,188
2017-08-05T04:31:12.880Z,192
2017-08-05T04:32:21.846Z,196
2017-08-05T04:33:30.798Z,200
2017-08-05T04:34:39.754Z,204
2017-08-05T04:35:48.717Z,208
2017-08-05T04:36:57.689Z,212
2017-08-05T04:38:06.641Z,216
2017-08-05T04:39:15.599Z,224
2017-08-05T04:40:24.557Z,224
2017-08-05T04:41:33.506Z,228
2017-08-05T04:42:42.453Z,236
2017-08-05T04:43:51.422Z,240
2017-08-05T04:45:00.713Z,248
2017-08-05T04:46:09.668Z,256
2017-08-05T04:47:18.631Z,260
2017-08-05T04:48:27.605Z,260
2017-08-05T04:49:36.569Z,264
2017-08-05T04:50:45.521Z,268
2017-08-05T04:51:54.814Z,268
2017-08-05T04:53:03.781Z,276
2017-08-05T04:54:12.752Z,276
2017-08-05T04:55:21.801Z,288
2017-08-05T04:56:30.756Z,292
2017-08-05T04:57:39.708Z,288
2017-08-05T04:58:48.666Z,292
2017-08-05T04:59:57.624Z,296
2017-08-05T05:01:06.586Z,304
2017-08-05T05:02:15.552Z,304
2017-08-05T05:03:24.520Z,312
2017-08-05T05:04:33.486Z,316
2017-08-05T05:05:42.442Z,324
2017-08-05T05:06:51.720Z,332
2017-08-05T05:08:00.679Z,336
2017-08-05T05:09:09.641Z,340
2017-08-05T05:10:18.599Z,344
2017-08-05T05:11:27.546Z,348
2017-08-05T05:12:36.514Z,360
2017-08-05T05:13:45.469Z,376
2017-08-05T05:14:54.762Z,496
2017-08-05T05:16:03.715Z,612
2017-08-05T05:17:12.676Z,696
2017-08-05T05:18:21.646Z,596
2017-08-05T05:19:30.608Z,468
2017-08-05T05:20:39.567Z,500
2017-08-05T05:21:48.525Z,608
2017-08-05T05:22:57.482Z,516
2017-08-05T05:24:06.764Z,520
2017-08-05T05:25:15.724Z,656
2017-08-05T05:26:24.681Z,880
2017-08-05T05:27:33.644Z,936
2017-08-05T05:28:42.603Z,816
2017-08-05T05:29:51.565Z,720
2017-08-05T05:31:00.520Z,624
2017-08-05T05:32:09.807Z,672
2017-08-05T05:33:18.774Z,940
2017-08-05T05:34:27.736Z,988
2017-08-05T05:35:36.695Z,1004
2017-08-05T05:36:45.654Z,860
2017-08-05T05:37:54.617Z,704
2017-08-05T05:39:03.572Z,652
2017-08-05T05:40:12.530Z,876
2017-08-05T05:41:21.499Z,1084
2017-08-05T05:42:30.462Z,952
2017-08-05T05:43:39.420Z,876
2017-08-05T05:44:48.375Z,792
2017-08-05T05:45:57.335Z,560
2017-08-05T05:47:06.301Z,444
2017-08-05T05:48:15.260Z,476
2017-08-05T05:49:24.219Z,516
2017-08-05T05:50:33.178Z,560
2017-08-05T05:51:42.131Z,692
2017-08-05T05:52:51.086Z,808
2017-08-05T05:54:00.074Z,736
2017-08-05T05:55:09.043Z,736
2017-08-05T05:56:18.013Z,748
2017-08-05T05:57:26.973Z,748
2017-08-05T05:58:35.942Z,628
2017-08-05T05:59:44.901Z,632
2017-08-05T06:00:53.862Z,672
2017-08-05T06:02:02.823Z,664
2017-08-05T06:03:11.779Z,828
2017-08-05T06:04:20.732Z,1048
2017-08-05T06:05:29.698Z,904
2017-08-05T06:06:38.662Z,864
2017-08-05T06:07:47.652Z,888
2017-08-05T06:08:56.604Z,988
2017-08-05T06:10:05.559Z,1020
2017-08-05T06:11:14.516Z,984
2017-08-05T06:12:23.479Z,984
2017-08-05T06:13:32.446Z,1368
2017-08-05T06:14:41.413Z,1432
2017-08-05T06:15:50.375Z,1444
2017-08-05T06:16:59.328Z,1244
2017-08-05T06:18:08.290Z,1392
2017-08-05T06:19:17.245Z,1576
2017-08-05T06:20:26.211Z,1488
2017-08-05T06:21:35.513Z,1628
2017-08-05T06:22:44.468Z,1564
2017-08-05T06:23:53.434Z,1552
2017-08-05T06:25:02.399Z,1476
2017-08-05T06:26:11.363Z,1260
2017-08-05T06:27:20.323Z,1284
2017-08-05T06:28:29.278Z,1140
2017-08-05T06:29:38.234Z,1184
2017-08-05T06:30:47.201Z,964
2017-08-05T06:31:56.152Z,1044
2017-08-05T06:33:05.112Z,1068
2017-08-05T06:34:14.077Z,1160
2017-08-05T06:35:23.034Z,1488
2017-08-05T06:36:32.002Z,1796
2017-08-05T06:37:40.968Z,1868
2017-08-05T06:38:49.925Z,1780
2017-08-05T06:39:58.884Z,1364
2017-08-05T06:41:08.169Z,1440
2017-08-05T06:42:17.138Z,1368
2017-08-05T06:43:26.098Z,1392
2017-08-05T06:44:35.057Z,1408
2017-08-05T06:45:44.021Z,1436
2017-08-05T06:46:52.990Z,1388
2017-08-05T06:48:01.954Z,1320
2017-08-05T06:49:10.911Z,1168
2017-08-05T06:50:19.876Z,1068
2017-08-05T06:51:28.828Z,1044
2017-08-05T06:52:37.810Z,956
2017-08-05T06:53:46.775Z,948
2017-08-05T06:54:55.741Z,960
2017-08-05T06:56:04.698Z,944
2017-08-05T06:57:13.666Z,872
2017-08-05T06:58:22.637Z,888
2017-08-05T06:59:31.597Z,892
2017-08-05T07:00:40.557Z,888
2017-08-05T07:01:49.845Z,888
2017-08-05T07:02:58.809Z,892
2017-08-05T07:04:07.774Z,912
2017-08-05T07:05:17.052Z,940
2017-08-05T07:06:26.009Z,920
2017-08-05T07:07:34.978Z,880
2017-08-05T07:08:43.941Z,888
2017-08-05T07:09:52.903Z,848
2017-08-05T07:11:01.863Z,864
2017-08-05T07:12:10.823Z,852
2017-08-05T07:13:20.110Z,856
2017-08-05T07:14:29.064Z,840
2017-08-05T07:15:38.031Z,852
2017-08-05T07:16:46.996Z,856
2017-08-05T07:17:55.961Z,872
2017-08-05T07:19:04.935Z,868
2017-08-05T07:20:13.891Z,872
2017-08-05T07:21:22.855Z,888
2017-08-05T07:22:32.133Z,912
2017-08-05T07:23:41.094Z,948
2017-08-05T07:24:50.059Z,984
2017-08-05T07:25:59.359Z,1020
2017-08-05T07:27:08.331Z,1060
2017-08-05T07:28:17.291Z,1216
2017-08-05T07:29:26.251Z,1280
2017-08-05T07:30:35.208Z,2088
2017-08-05T07:31:44.176Z,2332
2017-08-05T07:32:53.132Z,2344
2017-08-05T07:34:02.095Z,2224
2017-08-05T07:35:11.052Z,2388
2017-08-05T07:36:20.013Z,2656
2017-08-05T07:37:28.971Z,2884
2017-08-05T07:38:37.940Z,2972
2017-08-05T07:39:46.906Z,3124
2017-08-05T07:40:55.873Z,2984
2017-08-05T07:42:04.828Z,2720
2017-08-05T07:43:13.798Z,2588
2017-08-05T07:44:22.799Z,2384
2017-08-05T07:45:31.754Z,2740
2017-08-05T07:46:40.716Z,2136
2017-08-05T07:47:49.686Z,1860
2017-08-05T07:48:58.979Z,1812
2017-08-05T07:50:07.949Z,1108
2017-08-05T07:51:17.231Z,1084
2017-08-05T07:52:26.195Z,1584
2017-08-05T07:53:35.156Z,1664
2017-08-05T07:54:44.123Z,1192
2017-08-05T07:55:53.080Z,976
2017-08-05T07:57:02.362Z,952
2017-08-05T07:58:11.326Z,940
2017-08-05T07:59:20.286Z,964
2017-08-05T08:00:29.250Z,1024
2017-08-05T08:01:38.534Z,968
2017-08-05T08:02:47.504Z,964
2017-08-05T08:03:56.469Z,960
2017-08-05T08:05:05.456Z,956
2017-08-05T08:06:14.744Z,952
2017-08-05T08:07:23.706Z,996
2017-08-05T08:08:32.669Z,1152
2017-08-05T08:09:41.644Z,1804
2017-08-05T08:10:50.606Z,2144
2017-08-05T08:11:59.561Z,2300
2017-08-05T08:13:08.529Z,2340
2017-08-05T08:14:17.480Z,2492
2017-08-05T08:15:26.445Z,2748
2017-08-05T08:16:35.428Z,2736
2017-08-05T08:17:44.380Z,2356
2017-08-05T08:18:53.341Z,1992
2017-08-05T08:20:02.300Z,1984
2017-08-05T08:21:11.919Z,1856
2017-08-05T08:22:20.884Z,2368
2017-08-05T08:23:29.846Z,2320
2017-08-05T08:24:38.804Z,1344
2017-08-05T08:25:47.770Z,892
2017-08-05T08:26:56.742Z,1320
2017-08-05T08:28:05.704Z,1600
2017-08-05T08:29:14.682Z,1336
2017-08-05T08:30:23.635Z,1056
2017-08-05T08:31:32.600Z,1044
2017-08-05T08:32:41.565Z,1060
2017-08-05T08:33:50.533Z,1072
2017-08-05T08:34:59.493Z,1092
2017-08-05T08:36:08.475Z,1276
2017-08-05T08:37:17.440Z,1368
2017-08-05T08:38:26.403Z,1628
2017-08-05T08:39:35.369Z,1380
2017-08-05T08:40:44.324Z,1348
2017-08-05T08:41:53.281Z,1500
2017-08-05T08:43:02.238Z,2704
2017-08-05T08:44:11.200Z,2448
2017-08-05T08:45:20.166Z,1572
2017-08-05T08:46:29.123Z,2668
2017-08-05T08:47:38.101Z,2220
2017-08-05T08:48:47.068Z,1828
2017-08-05T08:49:56.021Z,3260
2017-08-05T08:51:04.980Z,3464
2017-08-05T08:52:14.282Z,3180
2017-08-05T08:53:23.568Z,3120
2017-08-05T08:54:32.865Z,3220
2017-08-05T08:55:41.835Z,3092
2017-08-05T08:56:50.848Z,2156
2017-08-05T08:57:59.814Z,3196
2017-08-05T08:59:08.796Z,3712
2017-08-05T09:00:17.768Z,3556
2017-08-05T09:01:26.754Z,2968
2017-08-05T09:02:35.711Z,3640
2017-08-05T09:03:44.681Z,3456
2017-08-05T09:04:53.641Z,3796
2017-08-05T09:06:02.618Z,3860
2017-08-05T09:07:11.583Z,3872
2017-08-05T09:08:20.544Z,3208
2017-08-05T09:09:29.844Z,3500
2017-08-05T09:10:38.807Z,3560
2017-08-05T09:11:47.766Z,3488
2017-08-05T09:12:57.064Z,3400
2017-08-05T09:14:06.354Z,3128
2017-08-05T09:15:15.636Z,2872
2017-08-05T09:16:24.597Z,2484
2017-08-05T09:17:33.557Z,3212
2017-08-05T09:18:42.517Z,3520
2017-08-05T09:19:51.483Z,3700
2017-08-05T09:21:00.447Z,3340
2017-08-05T09:22:09.742Z,4112
2017-08-05T09:23:18.724Z,3616
2017-08-05T09:24:27.688Z,3076
2017-08-05T09:25:36.652Z,3880
2017-08-05T09:26:45.627Z,3964
2017-08-05T09:27:54.583Z,3748
2017-08-05T09:29:03.594Z,3608
2017-08-05T09:30:12.908Z,2708
2017-08-05T09:31:21.870Z,2224
2017-08-05T09:32:30.838Z,2844
2017-08-05T09:33:39.803Z,3412
2017-08-05T09:34:48.770Z,3248
2017-08-05T09:35:57.734Z,3196
2017-08-05T09:37:06.693Z,2048
2017-08-05T09:38:15.669Z,2972
2017-08-05T09:39:24.629Z,3268
2017-08-05T09:40:33.590Z,3184
2017-08-05T09:41:42.562Z,1888
2017-08-05T09:42:51.525Z,1860
2017-08-05T09:44:00.494Z,3108
2017-08-05T09:45:09.461Z,4252
2017-08-05T09:46:18.421Z,3492
2017-08-05T09:47:27.383Z,3588
2017-08-05T09:48:36.341Z,3900
2017-08-05T09:49:45.308Z,4124
2017-08-05T09:50:54.272Z,3676
2017-08-05T09:52:03.239Z,2280
2017-08-05T09:53:12.196Z,4140
2017-08-05T09:54:21.161Z,4720
2017-08-05T09:55:30.117Z,4060
2017-08-05T09:56:39.073Z,4188
2017-08-05T09:57:48.033Z,3624
2017-08-05T09:58:56.993Z,3432
2017-08-05T10:00:05.958Z,3936
2017-08-05T10:01:14.928Z,3976
2017-08-05T10:02:24.224Z,3772
2017-08-05T10:03:33.196Z,3892
2017-08-05T10:04:42.162Z,3860
2017-08-05T10:05:51.121Z,3400
2017-08-05T10:07:00.078Z,3116
2017-08-05T10:08:09.365Z,3088
2017-08-05T10:09:18.319Z,2788
2017-08-05T10:10:27.280Z,1892
2017-08-05T10:11:36.243Z,1944
2017-08-05T10:12:45.207Z,1508
2017-08-05T10:13:54.169Z,3052
2017-08-05T10:15:03.130Z,1580
2017-08-05T10:16:12.423Z,1004
2017-08-05T10:17:21.395Z,1004
2017-08-05T10:18:30.382Z,1328
2017-08-05T10:19:39.341Z,2348
2017-08-05T10:20:48.632Z,2580
2017-08-05T10:21:57.597Z,2184
2017-08-05T10:23:06.557Z,1620
2017-08-05T10:24:15.521Z,1508
2017-08-05T10:25:24.484Z,2620
2017-08-05T10:26:33.437Z,2432
2017-08-05T10:27:42.407Z,2112
2017-08-05T10:28:51.373Z,1428
2017-08-05T10:30:00.346Z,1500
2017-08-05T10:31:09.307Z,1712
2017-08-05T10:32:18.262Z,1728
2017-08-05T10:33:27.227Z,1708
2017-08-05T10:34:36.194Z,1524
2017-08-05T10:35:45.154Z,1280
2017-08-05T10:36:54.110Z,1228
2017-08-05T10:38:03.068Z,1056
2017-08-05T10:39:12.032Z,1000
2017-08-05T10:40:20.992Z,984
2017-08-05T10:41:29.955Z,1136
2017-08-05T10:42:38.918Z,1276
2017-08-05T10:43:47.896Z,1244
2017-08-05T10:44:56.853Z,1280
2017-08-05T10:46:05.824Z,1312
2017-08-05T10:47:14.792Z,1260
2017-08-05T10:48:23.751Z,1184
2017-08-05T10:49:32.712Z,1372
2017-08-05T10:50:41.677Z,1448
2017-08-05T10:51:50.641Z,1676
2017-08-05T10:52:59.604Z,2132
2017-08-05T10:54:09.217Z,1876
2017-08-05T10:55:18.186Z,1972
2017-08-05T10:56:27.140Z,1528
2017-08-05T10:57:36.097Z,1392
2017-08-05T10:58:45.062Z,1704
2017-08-05T10:59:54.022Z,2192
2017-08-05T11:01:02.983Z,2432
2017-08-05T11:02:11.937Z,1776
2017-08-05T11:03:21.235Z,1776
2017-08-05T11:04:30.199Z,2260
2017-08-05T11:05:39.159Z,1628
2017-08-05T11:06:48.113Z,1460
2017-08-05T11:07:57.067Z,1676
2017-08-05T11:09:06.032Z,1320
2017-08-05T11:10:14.989Z,1216
2017-08-05T11:11:23.945Z,1244
2017-08-05T11:12:32.916Z,1628
2017-08-05T11:13:41.872Z,1644
2017-08-05T11:14:50.840Z,1452
2017-08-05T11:15:59.803Z,1212
2017-08-05T11:17:09.093Z,1008
2017-08-05T11:18:18.047Z,1372
2017-08-05T11:19:27.001Z,1184
2017-08-05T11:20:35.960Z,1600
2017-08-05T11:21:44.914Z,1640
2017-08-05T11:22:53.882Z,1708
2017-08-05T11:24:02.839Z,1580
2017-08-05T11:25:11.795Z,1444
2017-08-05T11:26:20.754Z,1348
2017-08-05T11:27:30.045Z,1252
2017-08-05T11:28:39.011Z,1108
2017-08-05T11:29:47.972Z,1112
2017-08-05T11:30:56.938Z,1128
2017-08-05T11:32:05.906Z,1172
2017-08-05T11:33:14.864Z,1100
2017-08-05T11:34:23.823Z,1040
2017-08-05T11:35:32.793Z,944
2017-08-05T11:36:41.751Z,860
2017-08-05T11:37:50.708Z,928
2017-08-05T11:38:59.671Z,956
2017-08-05T11:40:08.639Z,996
2017-08-05T11:41:17.608Z,964
2017-08-05T11:42:26.588Z,920
2017-08-05T11:43:35.549Z,872
2017-08-05T11:44:44.506Z,868
2017-08-05T11:45:53.479Z,896
2017-08-05T11:47:02.765Z,880
2017-08-05T11:48:11.724Z,952
2017-08-05T11:49:20.688Z,892
2017-08-05T11:50:29.649Z,800
2017-08-05T11:51:38.613Z,740
2017-08-05T11:52:47.928Z,664
2017-08-05T11:53:56.881Z,584
2017-08-05T11:55:05.841Z,608
2017-08-05T11:56:14.806Z,768
2017-08-05T11:57:23.770Z,728
2017-08-05T11:58:32.737Z,744
2017-08-05T11:59:41.702Z,812
2017-08-05T12:00:50.667Z,860
2017-08-05T12:01:59.629Z,828
2017-08-05T12:03:08.596Z,820
2017-08-05T12:04:17.560Z,924
2017-08-05T12:05:26.517Z,944
2017-08-05T12:06:35.477Z,936
2017-08-05T12:07:44.434Z,1004
2017-08-05T12:08:53.397Z,1064
2017-08-05T12:10:02.355Z,980
2017-08-05T12:11:11.313Z,992
2017-08-05T12:12:20.273Z,976
2017-08-05T12:13:29.237Z,984
2017-08-05T12:14:38.195Z,956
2017-08-05T12:15:47.152Z,960
2017-08-05T12:16:56.115Z,1152
2017-08-05T12:18:05.061Z,1292
2017-08-05T12:19:14.023Z,1316
2017-08-05T12:20:22.998Z,1112
2017-08-05T12:21:31.955Z,1036
2017-08-05T12:22:41.245Z,1172
2017-08-05T12:23:50.208Z,1108
2017-08-05T12:24:59.177Z,1076
2017-08-05T12:26:08.130Z,1020
2017-08-05T12:27:17.099Z,1104
2017-08-05T12:28:26.059Z,1380
2017-08-05T12:29:35.017Z,1296
2017-08-05T12:30:43.979Z,1444
2017-08-05T12:31:52.939Z,1644
2017-08-05T12:33:01.895Z,1808
2017-08-05T12:34:10.853Z,1864
2017-08-05T12:35:19.815Z,2020
2017-08-05T12:36:28.769Z,2024
2017-08-05T12:37:38.055Z,1968
2017-08-05T12:38:47.023Z,2028
2017-08-05T12:39:55.997Z,2340
2017-08-05T12:41:05.278Z,2480
2017-08-05T12:42:14.245Z,2344
2017-08-05T12:43:23.226Z,2116
2017-08-05T12:44:32.188Z,1988
2017-08-05T12:45:41.147Z,1536
2017-08-05T12:46:50.123Z,1072
2017-08-05T12:47:59.085Z,892
2017-08-05T12:49:08.045Z,812
2017-08-05T12:50:17.007Z,820
2017-08-05T12:51:25.970Z,788
2017-08-05T12:52:34.929Z,840
2017-08-05T12:53:43.884Z,672
2017-08-05T12:54:52.849Z,700
2017-08-05T12:56:01.803Z,640
2017-08-05T12:57:10.765Z,524
2017-08-05T12:58:19.737Z,576
2017-08-05T12:59:28.695Z,548
2017-08-05T13:00:37.665Z,608
2017-08-05T13:01:46.632Z,804
2017-08-05T13:02:55.598Z,1004
2017-08-05T13:04:04.557Z,1200
2017-08-05T13:05:13.519Z,1836
2017-08-05T13:06:22.487Z,2144
2017-08-05T13:07:31.461Z,2004
2017-08-05T13:08:40.424Z,1776
2017-08-05T13:09:49.719Z,1684
2017-08-05T13:10:58.679Z,1588
2017-08-05T13:12:07.636Z,1644
2017-08-05T13:13:16.597Z,1824
2017-08-05T13:14:25.557Z,2112
2017-08-05T13:15:34.514Z,2068
2017-08-05T13:16:43.484Z,2128
2017-08-05T13:17:52.443Z,2188
2017-08-05T13:19:01.412Z,1832
2017-08-05T13:20:10.377Z,1656
2017-08-05T13:21:19.339Z,1480
2017-08-05T13:22:28.306Z,2056
2017-08-05T13:23:37.258Z,1496
2017-08-05T13:24:46.216Z,1432
2017-08-05T13:25:55.183Z,1304
2017-08-05T13:27:04.164Z,1060
2017-08-05T13:28:13.124Z,1076
2017-08-05T13:29:22.095Z,1300
2017-08-05T13:30:31.405Z,1432
2017-08-05T13:31:40.359Z,1280
2017-08-05T13:32:49.333Z,1052
2017-08-05T13:33:58.381Z,1072
2017-08-05T13:35:07.340Z,788
2017-08-05T13:36:16.296Z,1008
2017-08-05T13:37:25.253Z,1060
2017-08-05T13:38:34.213Z,864
2017-08-05T13:39:43.173Z,692
2017-08-05T13:40:52.126Z,648
2017-08-05T13:42:01.090Z,668
2017-08-05T13:43:10.046Z,520
2017-08-05T13:44:19.006Z,472
2017-08-05T13:45:27.964Z,528
2017-08-05T13:46:36.933Z,596
2017-08-05T13:47:45.895Z,820
2017-08-05T13:48:54.857Z,676
2017-08-05T13:50:03.823Z,760
2017-08-05T13:51:12.787Z,468
2017-08-05T13:52:21.744Z,404
2017-08-05T13:53:30.705Z,504
2017-08-05T13:54:39.684Z,488
2017-08-05T13:55:48.639Z,392
2017-08-05T13:56:57.614Z,468
2017-08-05T13:58:06.569Z,468
2017-08-05T13:59:15.530Z,404
2017-08-05T14:00:24.489Z,368
2017-08-05T14:01:33.773Z,488
2017-08-05T14:02:42.736Z,688
2017-08-05T14:03:51.693Z,652
2017-08-05T14:05:00.659Z,680
2017-08-05T14:06:09.624Z,720
2017-08-05T14:07:18.578Z,720
2017-08-05T14:08:27.538Z,612
2017-08-05T14:09:36.826Z,472
2017-08-05T14:10:45.784Z,512
2017-08-05T14:11:54.740Z,476
2017-08-05T14:13:03.700Z,428
2017-08-05T14:14:12.666Z,352
2017-08-05T14:15:21.635Z,328
2017-08-05T14:16:30.602Z,404
2017-08-05T14:17:39.563Z,360
2017-08-05T14:18:48.520Z,436
2017-08-05T14:19:57.481Z,628
2017-08-05T14:21:06.446Z,588
2017-08-05T14:22:15.427Z,600
2017-08-05T14:23:24.389Z,508
2017-08-05T14:24:33.346Z,416
2017-08-05T14:25:42.314Z,360
2017-08-05T14:26:51.275Z,392
2017-08-05T14:28:00.234Z,304
2017-08-05T14:29:09.189Z,296
2017-08-05T14:30:18.149Z,284
2017-08-05T14:31:27.429Z,332
2017-08-05T14:32:36.384Z,288
2017-08-05T14:33:45.341Z,288
2017-08-05T14:34:54.301Z,324
2017-08-05T14:36:03.283Z,428
2017-08-05T14:37:12.569Z,276
2017-08-05T14:38:21.531Z,216
2017-08-05T14:39:30.491Z,200
2017-08-05T14:40:39.463Z,212
2017-08-05T14:41:48.428Z,236
2017-08-05T14:42:57.718Z,316
2017-08-05T14:44:06.675Z,400
2017-08-05T14:45:15.966Z,400
2017-08-05T14:46:24.927Z,380
2017-08-05T14:47:33.889Z,452
2017-08-05T14:48:42.846Z,344
2017-08-05T14:49:51.808Z,452
2017-08-05T14:51:00.773Z,616
2017-08-05T14:52:09.729Z,908
2017-08-05T14:53:18.684Z,952
2017-08-05T14:54:27.643Z,900
2017-08-05T14:55:36.603Z,1140
2017-08-05T14:56:45.574Z,1152
2017-08-05T14:57:54.533Z,904
2017-08-05T14:59:03.495Z,832
2017-08-05T15:00:12.464Z,908
2017-08-05T15:01:21.420Z,1148
2017-08-05T15:02:30.375Z,1304
2017-08-05T15:03:39.333Z,1300
2017-08-05T15:04:48.615Z,1208
2017-08-05T15:05:57.573Z,1200
2017-08-05T15:07:06.535Z,1260
2017-08-05T15:08:15.493Z,1432
2017-08-05T15:09:24.465Z,1380
2017-08-05T15:10:33.420Z,1264
2017-08-05T15:11:42.377Z,1220
2017-08-05T15:12:51.346Z,1148
2017-08-05T15:14:00.303Z,1024
2017-08-05T15:15:09.259Z,764
2017-08-05T15:16:18.219Z,724
2017-08-05T15:17:27.505Z,876
2017-08-05T15:18:36.463Z,868
2017-08-05T15:19:45.418Z,964
2017-08-05T15:20:54.371Z,988
2017-08-05T15:22:03.326Z,968
2017-08-05T15:23:12.292Z,940
2017-08-05T15:24:21.246Z,1064
2017-08-05T15:25:30.209Z,884
2017-08-05T15:26:39.188Z,688
2017-08-05T15:27:48.148Z,844
2017-08-05T15:28:57.103Z,912
2017-08-05T15:30:06.388Z,896
2017-08-05T15:31:15.346Z,820
2017-08-05T15:32:24.303Z,756
2017-08-05T15:33:33.271Z,876
2017-08-05T15:34:42.229Z,844
2017-08-05T15:35:51.180Z,792
2017-08-05T15:37:00.138Z,728
2017-08-05T15:38:09.097Z,728
2017-08-05T15:39:18.077Z,764
2017-08-05T15:40:27.040Z,728
2017-08-05T15:41:35.998Z,732
2017-08-05T15:42:44.959Z,792
2017-08-05T15:43:53.912Z,892
2017-08-05T15:45:02.873Z,812
2017-08-05T15:46:11.835Z,760
2017-08-05T15:47:20.793Z,772
2017-08-05T15:48:29.753Z,832
2017-08-05T15:49:38.707Z,880
2017-08-05T15:50:47.663Z,928
2017-08-05T15:51:56.641Z,932
2017-08-05T15:53:05.604Z,864